Terminal Aerodrome Forecast
Issued by NWS Upton, NY

Home | Current Version | Previous Version | Text Only | Print | Product List | Glossary On
Versions: 1 2 3 4 5 6 7 8 9 10 11 12 13 14 15 16 17 18 19 20 21 22 23 24 25 26 27 28 29 30 31 32 33 34
000
FTUS41 KOKX 232000 AAB
TAFJFK
TAF AMD
KJFK 232043Z 2321/2424 34019G28KT P6SM VCSH BKN020 BKN025 OVC040
      TEMPO 2321/2323 SCT020 OVC040
     FM232300 33019G27KT P6SM BKN040 BKN070
     FM240500 33014KT P6SM BKN050 BKN080
     FM241400 32013G23KT P6SM BKN050
     FM242200 32013G19KT P6SM SCT050=

USA.gov is the U.S. government's official web portal to all federal, state and local government web resources and services.